Time;durP1;ratioP1;P1;durP2;ratioP2;P2;SDS_P1;SDS_P2;PMS_P1;PMS_P2;Temp;Humidity;BMP_temperature;BMP_pressure;BME280_temperature;BME280_humidity;BME280_pressure;Samples;Min_cycle;Max_cycle;Signal;HPM_P1;HPM_P2
2021/12/10 00:02:11;;;;;;;;;3.00;3.00;;;;;21.30;37.23;99082.44;5085948;27;50942;-44
2021/12/10 00:04:39;;;;;;;;;3.50;2.50;;;;;21.27;37.25;99068.41;5079375;27;51107;-44
2021/12/10 00:07:11;;;;;;;;;2.00;2.00;;;;;21.22;37.67;99044.38;5086568;27;50889;-44
2021/12/10 00:09:47;;;;;;;;;4.50;3.25;;;;;21.20;37.33;99046.59;5085261;27;51348;-43
2021/12/10 00:12:19;;;;;;;;;6.50;3.50;;;;;21.17;37.42;99033.38;5070221;27;51338;-45
2021/12/10 00:14:46;;;;;;;;;2.50;2.00;;;;;21.14;37.57;99013.78;5081585;27;51418;-45
2021/12/10 00:17:13;;;;;;;;;3.00;3.00;;;;;21.12;37.77;98999.47;5089579;27;51236;-43
2021/12/10 00:19:45;;;;;;;;;2.25;2.25;;;;;21.09;37.66;98987.06;5084316;27;51085;-44
2021/12/10 00:22:18;;;;;;;;;2.75;2.00;;;;;21.06;37.47;98990.38;5086223;27;51153;-44
2021/12/10 00:24:46;;;;;;;;;2.75;2.00;;;;;21.05;37.65;98972.22;5079169;27;51078;-44
2021/12/10 00:27:12;;;;;;;;;3.00;3.00;;;;;21.01;37.89;98947.13;5088133;27;51529;-45
2021/12/10 00:29:42;;;;;;;;;3.25;2.00;;;;;20.99;37.32;98927.31;5084739;27;51746;-43
2021/12/10 00:32:23;;;;;;;;;2.75;2.25;;;;;20.96;37.12;98899.50;5088806;27;50823;-45
2021/12/10 00:34:52;;;;;;;;;4.25;2.75;;;;;20.94;37.48;98898.94;5099107;27;51124;-43
2021/12/10 00:37:21;;;;;;;;;3.00;3.00;;;;;20.92;37.41;98892.88;5098191;27;51319;-43
2021/12/10 00:39:52;;;;;;;;;3.50;2.75;;;;;20.90;37.54;98886.81;5078979;27;52068;-43
2021/12/10 00:42:21;;;;;;;;;1.50;1.50;;;;;20.88;37.39;98900.03;5076535;27;51347;-44
2021/12/10 00:44:47;;;;;;;;;4.00;4.00;;;;;20.87;37.62;98904.72;5085766;27;50959;-44
2021/12/10 00:47:13;;;;;;;;;3.00;3.00;;;;;20.85;37.76;98906.91;5081643;27;51015;-44
2021/12/10 00:49:39;;;;;;;;;1.50;1.50;;;;;20.82;37.81;98898.34;5081188;27;51010;-42
2021/12/10 00:52:08;;;;;;;;;2.00;2.00;;;;;20.80;37.72;98890.38;5079677;27;51409;-45
2021/12/10 00:54:34;;;;;;;;;1.00;1.00;;;;;20.79;37.80;98868.66;5078347;27;51098;-42
2021/12/10 00:57:01;;;;;;;;;3.00;3.00;;;;;20.77;37.58;98862.59;5084960;27;50936;-44
2021/12/10 00:59:26;;;;;;;;;4.00;2.00;;;;;20.75;37.53;98849.94;5073218;27;51745;-44
2021/12/10 01:01:52;;;;;;;;;1.50;1.50;;;;;20.74;37.68;98852.97;5081016;27;51303;-43
2021/12/10 01:04:27;;;;;;;;;2.50;2.50;;;;;20.72;37.42;98828.44;5086172;27;51038;-42
2021/12/10 01:06:55;;;;;;;;;1.25;1.25;;;;;20.70;37.59;98810.56;5093260;27;51274;-44
2021/12/10 01:09:27;;;;;;;;;2.75;2.00;;;;;20.69;37.82;98806.16;5085262;27;51007;-43
2021/12/10 01:12:12;;;;;;;;;3.75;2.00;;;;;20.66;37.38;98796.53;5082506;27;51046;-44
2021/12/10 01:15:01;;;;;;;;;3.75;2.50;;;;;20.65;37.39;98783.88;5085555;27;51080;-43
2021/12/10 01:26:40;;;;;;;;;2.00;2.00;;;;;20.58;38.00;98754.97;5088731;27;51106;-42
2021/12/10 01:28:41;;;;;;;;;1.25;1.25;;;;;20.56;37.88;98763.50;5064746;27;52329;-43
2021/12/10 01:31:07;;;;;;;;;4.00;2.00;;;;;20.55;37.82;98753.59;5081248;27;51338;-44
2021/12/10 01:33:32;;;;;;;;;2.50;0.50;;;;;20.53;37.87;98753.06;5086371;27;51010;-45
2021/12/10 01:35:59;;;;;;;;;1.75;0.50;;;;;20.53;37.57;98746.69;5077223;27;51138;-43
2021/12/10 01:38:26;;;;;;;;;0.25;0.25;;;;;20.52;37.48;98739.56;5077422;27;51181;-41
2021/12/10 01:40:56;;;;;;;;;1.50;1.50;;;;;20.49;37.69;98729.94;5079065;27;50909;-44
2021/12/10 01:43:24;;;;;;;;;2.00;1.00;;;;;20.49;37.77;98724.44;5077230;27;51355;-41
2021/12/10 01:46:06;;;;;;;;;1.00;1.00;;;;;20.45;37.82;98710.41;5081330;27;51021;-43
2021/12/10 01:49:03;;;;;;;;;3.00;1.00;;;;;20.45;38.28;98717.84;5079919;27;51360;-47
2021/12/10 01:51:32;;;;;;;;;0.00;0.00;;;;;20.43;37.98;98707.13;5071355;27;53670;-43
2021/12/10 01:54:05;;;;;;;;;1.00;1.00;;;;;20.42;37.92;98696.34;5081506;27;51402;-43
2021/12/10 01:56:33;;;;;;;;;0.25;0.25;;;;;20.42;37.85;98696.34;5085216;27;51265;-43
2021/12/10 01:58:59;;;;;;;;;2.00;2.00;;;;;20.42;37.67;98685.34;5101872;27;50848;-43
2021/12/10 02:01:31;;;;;;;;;1.00;1.00;;;;;20.39;38.00;98686.72;5085314;27;52726;-42
2021/12/10 02:03:59;;;;;;;;;3.00;2.00;;;;;20.38;38.11;98690.56;5084642;27;51274;-42
2021/12/10 02:06:25;;;;;;;;;0.00;0.00;;;;;20.37;37.96;98688.09;5082232;27;51253;-42
2021/12/10 02:08:50;;;;;;;;;1.00;0.00;;;;;20.37;37.97;98685.34;5089647;27;50947;-45
2021/12/10 02:11:17;;;;;;;;;1.00;1.00;;;;;20.36;37.98;98675.44;5073764;27;51829;-43
2021/12/10 02:13:42;;;;;;;;;0.00;0.00;;;;;20.35;38.05;98680.13;5077008;27;50966;-45
2021/12/10 02:16:08;;;;;;;;;1.50;0.75;;;;;20.33;38.28;98668.56;5077315;27;51437;-54
2021/12/10 02:18:34;;;;;;;;;1.00;1.00;;;;;20.33;38.08;98670.50;5109121;27;51159;-44
2021/12/10 02:21:02;;;;;;;;;0.00;0.00;;;;;20.31;37.83;98659.75;5083518;27;52968;-43
2021/12/10 02:23:37;;;;;;;;;0.00;0.00;;;;;20.31;38.11;98659.75;5078821;27;52348;-44
2021/12/10 02:26:06;;;;;;;;;2.00;1.00;;;;;20.30;38.17;98663.59;5085992;27;51088;-44
2021/12/10 02:28:32;;;;;;;;;1.00;1.00;;;;;20.30;38.12;98633.34;5087028;27;51326;-44
2021/12/10 02:30:59;;;;;;;;;1.50;1.00;;;;;20.27;38.21;98631.16;5087598;27;50996;-41
2021/12/10 02:33:25;;;;;;;;;1.00;1.00;;;;;20.27;38.15;98647.66;5092888;27;50936;-40
2021/12/10 02:35:51;;;;;;;;;1.25;0.00;;;;;20.26;38.51;98654.25;5091000;27;50991;-42
2021/12/10 02:38:18;;;;;;;;;0.00;0.00;;;;;20.26;38.39;98653.44;5073259;27;51222;-42
2021/12/10 02:40:46;;;;;;;;;0.25;0.00;;;;;20.27;38.23;98644.09;5080819;27;53144;-42
2021/12/10 02:43:13;;;;;;;;;0.75;0.75;;;;;20.25;38.11;98647.13;5079578;27;51287;-44
2021/12/10 02:45:42;;;;;;;;;1.00;1.00;;;;;20.24;38.23;98631.72;5089628;27;50928;-42
2021/12/10 02:48:07;;;;;;;;;2.00;1.00;;;;;20.24;38.00;98622.66;5083657;27;51085;-41
2021/12/10 02:50:36;;;;;;;;;0.00;0.00;;;;;20.22;38.42;98613.81;5088312;27;51793;-42
2021/12/10 02:53:06;;;;;;;;;0.00;0.00;;;;;20.21;38.03;98609.44;5080259;27;51026;-42
2021/12/10 02:55:32;;;;;;;;;0.50;0.50;;;;;20.21;38.42;98603.94;5086076;27;50964;-45
2021/12/10 02:58:04;;;;;;;;;1.00;1.00;;;;;20.20;38.38;98600.38;5093043;27;51047;-43
2021/12/10 03:00:34;;;;;;;;;0.75;0.00;;;;;20.19;38.46;98604.22;5078464;27;52710;-41
2021/12/10 03:02:59;;;;;;;;;0.50;0.50;;;;;20.17;38.23;98596.25;5073630;27;50996;-41
2021/12/10 03:05:25;;;;;;;;;0.00;0.00;;;;;20.16;38.53;98605.59;5082075;27;51045;-44
2021/12/10 03:07:52;;;;;;;;;1.00;1.00;;;;;20.16;38.47;98602.84;5086517;27;50883;-46
2021/12/10 03:10:22;;;;;;;;;0.00;0.00;;;;;20.14;38.01;98602.31;5083686;27;53098;-45
2021/12/10 03:12:48;;;;;;;;;0.00;0.00;;;;;20.13;38.39;98597.91;5083060;27;51076;-44
2021/12/10 03:15:15;;;;;;;;;0.00;0.00;;;;;20.13;38.31;98584.16;5083090;27;51045;-43
2021/12/10 03:17:43;;;;;;;;;0.00;0.00;;;;;20.13;38.17;98584.16;5090408;27;51275;-43
2021/12/10 03:20:11;;;;;;;;;0.00;0.00;;;;;20.12;38.45;98601.75;5087482;27;51050;-45
2021/12/10 03:22:38;;;;;;;;;0.00;0.00;;;;;20.11;38.17;98602.84;5086349;27;51021;-43
2021/12/10 03:25:11;;;;;;;;;1.00;0.00;;;;;20.10;38.31;98603.94;5080370;27;51102;-42
2021/12/10 03:27:37;;;;;;;;;0.00;0.00;;;;;20.10;38.50;98598.44;5083420;27;51232;-45
2021/12/10 03:30:09;;;;;;;;;0.00;0.00;;;;;20.08;38.69;98597.88;5092472;27;51231;-45
2021/12/10 03:32:38;;;;;;;;;2.75;1.00;;;;;20.08;38.51;98603.38;5075929;27;51301;-44
2021/12/10 03:35:09;;;;;;;;;0.00;0.00;;;;;20.08;38.46;98608.06;5084654;27;51244;-44
2021/12/10 03:37:38;;;;;;;;;0.00;0.00;;;;;20.06;38.45;98600.09;5085682;27;50959;-43
2021/12/10 03:40:06;;;;;;;;;0.00;0.00;;;;;20.07;38.25;98607.22;5091043;27;51009;-44
2021/12/10 03:42:32;;;;;;;;;0.00;0.00;;;;;20.07;38.37;98606.41;5095466;27;51114;-42
2021/12/10 03:44:57;;;;;;;;;1.00;1.00;;;;;20.05;38.35;98606.69;5084762;27;51034;-44
2021/12/10 03:47:23;;;;;;;;;0.75;0.00;;;;;20.05;38.56;98598.44;5079040;27;51111;-43
2021/12/10 03:49:49;;;;;;;;;1.00;0.00;;;;;20.04;38.54;98602.28;5081068;27;53351;-44
2021/12/10 03:52:14;;;;;;;;;1.00;1.00;;;;;20.04;38.77;98601.47;5080735;27;51221;-45
2021/12/10 03:54:41;;;;;;;;;1.00;0.00;;;;;20.03;38.77;98608.88;5092806;27;51656;-42
2021/12/10 03:57:07;;;;;;;;;0.00;0.00;;;;;20.01;38.32;98611.09;5088475;27;51075;-42
2021/12/10 03:59:36;;;;;;;;;0.00;0.00;;;;;20.02;38.28;98603.66;5073216;27;51709;-42
2021/12/10 04:02:04;;;;;;;;;0.00;0.00;;;;;20.01;38.66;98611.09;5082188;27;51043;-42
2021/12/10 04:04:35;;;;;;;;;0.00;0.00;;;;;20.01;38.62;98618.47;5091287;27;51089;-44
2021/12/10 04:07:05;;;;;;;;;0.00;0.00;;;;;20.01;38.80;98613.84;5084905;27;50916;-42
2021/12/10 04:09:30;;;;;;;;;0.00;0.00;;;;;20.00;38.57;98614.91;5084544;27;52811;-44
2021/12/10 04:11:56;;;;;;;;;0.00;0.00;;;;;20.00;38.67;98611.34;5077999;27;51244;-42
2021/12/10 04:14:22;;;;;;;;;0.00;0.00;;;;;19.98;38.56;98603.38;5085893;27;51087;-42
2021/12/10 04:16:54;;;;;;;;;0.00;0.00;;;;;19.97;38.41;98612.72;5075389;27;51338;-44
2021/12/10 04:19:19;;;;;;;;;0.00;0.00;;;;;19.97;38.73;98617.38;5079427;27;50976;-42
2021/12/10 04:21:45;;;;;;;;;0.25;0.25;;;;;19.97;38.45;98611.88;5088490;27;51018;-43
2021/12/10 04:24:16;;;;;;;;;0.00;0.00;;;;;19.96;38.52;98611.06;5080547;27;51166;-43
2021/12/10 04:26:42;;;;;;;;;0.75;0.00;;;;;19.95;38.81;98605.84;5086144;27;50870;-44
2021/12/10 04:29:08;;;;;;;;;0.00;0.00;;;;;19.94;38.77;98610.50;5085895;27;52474;-43
2021/12/10 04:31:34;;;;;;;;;0.00;0.00;;;;;19.95;38.58;98616.84;5103864;27;51141;-45
2021/12/10 04:33:59;;;;;;;;;0.00;0.00;;;;;19.93;39.01;98603.38;5081812;27;51156;-43
2021/12/10 04:36:26;;;;;;;;;0.00;0.00;;;;;19.93;38.36;98614.38;5087976;27;51342;-44
2021/12/10 04:38:52;;;;;;;;;0.00;0.00;;;;;19.93;38.66;98613.53;5085534;27;52089;-45
2021/12/10 04:41:17;;;;;;;;;1.00;0.00;;;;;19.91;38.54;98616.56;5084502;27;51111;-44
2021/12/10 04:43:47;;;;;;;;;0.00;0.00;;;;;19.91;38.88;98627.56;5085975;27;51241;-49
2021/12/10 04:46:14;;;;;;;;;1.00;0.00;;;;;19.91;38.54;98615.75;5080200;27;51124;-45
2021/12/10 04:48:48;;;;;;;;;0.00;0.00;;;;;19.89;38.69;98627.81;5087370;27;52661;-44
2021/12/10 04:51:13;;;;;;;;;0.50;0.50;;;;;19.89;38.96;98630.56;5077191;27;51369;-43
2021/12/10 04:53:39;;;;;;;;;0.00;0.00;;;;;19.89;38.64;98635.22;5083397;27;51017;-43
2021/12/10 04:56:05;;;;;;;;;0.00;0.00;;;;;19.89;38.69;98629.72;5080172;27;51479;-46
2021/12/10 04:58:32;;;;;;;;;1.00;0.00;;;;;19.88;38.84;98626.16;5081634;27;51065;-43
2021/12/10 05:00:57;;;;;;;;;0.00;0.00;;;;;19.88;38.91;98626.16;5070728;27;51620;-44
2021/12/10 05:03:22;;;;;;;;;0.00;0.00;;;;;19.88;38.85;98626.16;5082970;27;51053;-45
2021/12/10 05:05:48;;;;;;;;;1.00;1.00;;;;;19.88;38.72;98636.31;5086223;27;51205;-45
2021/12/10 05:08:14;;;;;;;;;0.00;0.00;;;;;19.88;38.95;98650.06;5084403;27;52700;-43
2021/12/10 05:10:41;;;;;;;;;0.00;0.00;;;;;19.87;38.64;98640.16;5077549;27;51162;-44
2021/12/10 05:13:06;;;;;;;;;0.00;0.00;;;;;19.86;38.92;98639.34;5085512;27;50865;-46
2021/12/10 05:15:35;;;;;;;;;3.00;0.00;;;;;19.86;38.86;98635.78;5086860;27;51046;-44
2021/12/10 05:18:00;;;;;;;;;0.00;0.00;;;;;19.86;38.75;98655.00;5101224;27;51854;-45
2021/12/10 05:20:31;;;;;;;;;0.50;0.00;;;;;19.85;38.92;98658.84;5078306;27;51064;-44
2021/12/10 05:22:57;;;;;;;;;0.50;0.00;;;;;19.85;38.99;98658.84;5102371;27;52030;-42
2021/12/10 05:25:25;;;;;;;;;1.00;0.00;;;;;19.84;39.06;98669.03;5089684;27;51323;-45
2021/12/10 05:27:51;;;;;;;;;0.00;0.00;;;;;19.84;38.91;98676.44;5094219;27;51736;-41
2021/12/10 05:30:21;;;;;;;;;0.00;0.00;;;;;19.83;38.92;98683.84;5095240;27;51049;-42
2021/12/10 05:32:46;;;;;;;;;1.00;0.00;;;;;19.82;39.04;98681.38;5088249;27;50933;-42
2021/12/10 05:35:12;;;;;;;;;0.75;0.00;;;;;19.83;38.98;98685.78;5101493;27;51239;-45
2021/12/10 05:37:39;;;;;;;;;0.00;0.00;;;;;19.81;38.75;98693.47;5087080;27;51015;-43
2021/12/10 05:40:06;;;;;;;;;0.00;0.00;;;;;19.80;38.79;98703.63;5089711;27;50952;-42
2021/12/10 05:42:31;;;;;;;;;0.00;0.00;;;;;19.79;39.03;98704.69;5094507;27;51122;-44
2021/12/10 05:44:56;;;;;;;;;1.00;0.00;;;;;19.79;38.86;98695.63;5085343;27;51022;-41
2021/12/10 05:47:22;;;;;;;;;0.25;0.00;;;;;19.78;38.68;98711.28;5084595;27;51003;-45
2021/12/10 05:49:48;;;;;;;;;1.00;1.00;;;;;19.77;38.83;98698.66;5094656;27;51134;-44
2021/12/10 05:52:14;;;;;;;;;2.00;0.25;;;;;19.78;38.94;98719.53;5085370;27;51361;-44
2021/12/10 05:54:40;;;;;;;;;3.00;0.00;;;;;19.77;39.01;98728.03;5085938;27;51170;-45
2021/12/10 05:57:05;;;;;;;;;4.00;1.00;;;;;19.77;39.16;98728.88;5085020;27;51135;-44
2021/12/10 05:59:31;;;;;;;;;0.00;0.00;;;;;19.76;38.97;98716.22;5080491;27;51008;-45
2021/12/10 06:01:57;;;;;;;;;0.00;0.00;;;;;19.77;38.29;98728.88;5089305;27;52503;-46
2021/12/10 06:04:27;;;;;;;;;2.00;0.75;;;;;19.76;39.03;98735.47;5107636;27;51202;-44
2021/12/10 06:06:53;;;;;;;;;0.25;0.00;;;;;19.77;38.80;98736.28;5073874;27;51590;-43
2021/12/10 06:09:19;;;;;;;;;1.75;0.25;;;;;19.76;38.85;98740.97;5089628;27;51103;-46
2021/12/10 06:11:44;;;;;;;;;1.75;0.75;;;;;19.75;39.00;98755.78;5103235;27;51957;-46
2021/12/10 06:14:09;;;;;;;;;0.00;0.00;;;;;19.74;39.13;98756.06;5089228;27;51362;-42
2021/12/10 06:16:35;;;;;;;;;1.50;0.00;;;;;19.74;38.97;98756.88;5080402;27;51805;-42
2021/12/10 06:19:03;;;;;;;;;0.50;0.50;;;;;19.75;39.16;98765.97;5080983;27;51218;-41
2021/12/10 06:21:29;;;;;;;;;1.00;0.00;;;;;19.74;38.82;98762.38;5084093;27;50976;-45
2021/12/10 06:23:55;;;;;;;;;0.00;0.00;;;;;19.74;38.87;98789.84;5087453;27;51177;-43
2021/12/10 06:26:21;;;;;;;;;2.50;1.00;;;;;19.72;38.49;98781.06;5080352;27;51154;-43
2021/12/10 06:28:46;;;;;;;;;2.50;2.00;;;;;19.68;38.28;98790.09;5089398;27;51184;-43
2021/12/10 06:31:14;;;;;;;;;1.00;1.00;;;;;19.59;38.40;98798.84;5077382;27;51146;-42
2021/12/10 06:33:40;;;;;;;;;3.00;2.25;;;;;19.52;38.50;98786.41;5074481;27;51073;-43
2021/12/10 06:36:06;;;;;;;;;1.25;0.50;;;;;19.47;38.79;98784.44;5079716;27;52579;-44
2021/12/10 06:38:33;;;;;;;;;0.75;0.75;;;;;19.49;39.19;98787.75;5076452;27;52595;-44
2021/12/10 06:40:59;;;;;;;;;1.00;1.00;;;;;19.55;39.48;98791.34;5076137;27;51031;-49
2021/12/10 06:43:25;;;;;;;;;1.25;1.00;;;;;19.60;39.82;98796.94;5085540;27;52146;-45
2021/12/10 06:45:52;;;;;;;;;2.25;1.00;;;;;19.70;39.85;98807.97;5102468;27;51191;-42
2021/12/10 06:48:19;;;;;;;;;3.25;1.50;;;;;19.78;39.78;98801.13;5086910;27;51320;-43
2021/12/10 06:50:49;;;;;;;;;1.25;1.00;;;;;19.86;40.21;98815.19;5083705;27;51035;-44
2021/12/10 06:53:16;;;;;;;;;0.50;0.00;;;;;19.94;40.35;98822.09;5085556;27;50974;-42
2021/12/10 06:55:42;;;;;;;;;1.50;1.00;;;;;20.02;40.32;98834.53;5083466;27;51686;-42
2021/12/10 06:58:08;;;;;;;;;0.50;0.50;;;;;20.08;40.19;98839.75;5083837;27;51113;-42
2021/12/10 07:00:50;;;;;;;;;0.00;0.00;;;;;20.17;40.28;98859.31;5081012;27;51360;-45
2021/12/10 07:03:19;;;;;;;;;0.75;0.75;;;;;20.24;40.07;98856.34;5084589;27;51137;-43
2021/12/10 07:05:46;;;;;;;;;3.00;0.50;;;;;20.32;40.71;98861.28;5070702;27;51388;-45
2021/12/10 07:08:11;;;;;;;;;2.25;1.00;;;;;20.39;40.51;98857.22;5082608;27;51188;-42
2021/12/10 07:10:37;;;;;;;;;1.00;0.00;;;;;20.45;40.39;98883.66;5079529;27;50940;-45
2021/12/10 07:13:06;;;;;;;;;0.00;0.00;;;;;20.52;40.67;98893.56;5080910;27;51141;-48
2021/12/10 07:15:37;;;;;;;;;0.00;0.00;;;;;20.57;40.78;98888.94;5070339;27;53342;-43
2021/12/10 07:18:03;;;;;;;;;0.00;0.00;;;;;20.61;40.64;98903.78;5077743;27;51461;-45
2021/12/10 07:20:30;;;;;;;;;0.25;0.25;;;;;20.67;40.77;98907.41;5074332;27;51137;-45
2021/12/10 07:22:56;;;;;;;;;1.00;1.00;;;;;20.71;40.73;98914.84;5081411;27;51113;-43
2021/12/10 07:25:24;;;;;;;;;1.00;0.00;;;;;20.77;40.57;98910.19;5078942;27;52606;-42
2021/12/10 07:27:50;;;;;;;;;0.50;0.50;;;;;20.83;40.43;98922.84;5076648;27;51182;-44
2021/12/10 07:30:18;;;;;;;;;1.25;0.00;;;;;20.88;40.92;98941.31;5078907;27;51190;-43
2021/12/10 07:32:44;;;;;;;;;0.00;0.00;;;;;20.91;40.77;98949.03;5099110;27;51275;-44
2021/12/10 07:35:10;;;;;;;;;1.00;1.00;;;;;20.96;41.06;98943.56;5089097;27;51084;-43
2021/12/10 07:37:38;;;;;;;;;1.00;0.00;;;;;20.98;41.19;98966.13;5086175;27;51263;-43
2021/12/10 07:40:08;;;;;;;;;2.00;0.00;;;;;20.95;40.43;98961.16;5074892;27;50923;-42
2021/12/10 07:42:33;;;;;;;;;1.00;1.00;;;;;20.91;41.04;98979.31;5076157;27;51142;-43
2021/12/10 07:44:59;;;;;;;;;2.50;0.75;;;;;20.87;40.73;98983.69;5072873;27;51151;-42
2021/12/10 07:47:24;;;;;;;;;1.50;1.50;;;;;20.85;40.95;98996.91;5072383;27;51005;-43
2021/12/10 07:49:50;;;;;;;;;0.00;0.00;;;;;20.79;40.77;98987.78;5073259;27;51095;-46
2021/12/10 07:52:22;;;;;;;;;1.00;0.00;;;;;20.73;40.78;99000.69;5069569;27;51348;-44
2021/12/10 07:54:48;;;;;;;;;1.00;0.25;;;;;20.71;41.21;99002.06;5074265;27;52199;-45
2021/12/10 07:57:19;;;;;;;;;0.00;0.00;;;;;20.71;40.94;99005.63;5077279;27;51288;-46
2021/12/10 07:59:45;;;;;;;;;1.50;0.25;;;;;20.70;40.82;99006.72;5091326;27;51093;-46
2021/12/10 08:02:11;;;;;;;;;0.00;0.00;;;;;20.67;40.84;99012.78;5071652;27;51133;-47
2021/12/10 08:04:37;;;;;;;;;0.00;0.00;;;;;20.62;41.27;99015.50;5056625;27;50977;-44
2021/12/10 08:07:03;;;;;;;;;0.25;0.00;;;;;20.56;41.12;99021.25;5078707;28;50933;-43
2021/12/10 08:09:28;;;;;;;;;1.50;1.00;;;;;20.51;41.03;99030.28;5078573;27;51021;-45
2021/12/10 08:11:54;;;;;;;;;0.75;0.50;;;;;20.45;40.82;99034.94;5078065;27;51936;-44
2021/12/10 08:14:19;;;;;;;;;0.00;0.00;;;;;20.40;40.91;99039.53;5077317;27;51322;-45
2021/12/10 08:16:45;;;;;;;;;2.00;0.25;;;;;20.38;41.16;99036.22;5078133;28;51087;-44
2021/12/10 08:19:12;;;;;;;;;1.00;1.00;;;;;20.33;41.19;99061.78;5078232;27;51104;-45
2021/12/10 08:21:38;;;;;;;;;0.00;0.00;;;;;20.31;41.27;99068.63;5077417;27;50861;-44
2021/12/10 08:24:04;;;;;;;;;0.00;0.00;;;;;20.25;41.12;99076.00;5077926;27;50919;-44
2021/12/10 08:26:29;;;;;;;;;1.00;0.00;;;;;20.22;41.44;99083.94;5082686;27;51035;-44
2021/12/10 08:28:55;;;;;;;;;1.00;1.00;;;;;20.17;41.14;99088.31;5098090;27;50852;-44
2021/12/10 08:31:21;;;;;;;;;1.50;1.00;;;;;20.14;41.16;99094.34;5098720;27;50999;-43
2021/12/10 08:33:49;;;;;;;;;0.00;0.00;;;;;20.10;41.64;99090.44;5098061;27;52671;-44
2021/12/10 08:36:18;;;;;;;;;0.50;0.50;;;;;20.07;41.41;99095.66;5098680;27;51309;-44
2021/12/10 08:38:44;;;;;;;;;0.50;0.00;;;;;20.04;41.33;99099.75;5098238;27;51025;-44
2021/12/10 08:41:17;;;;;;;;;0.00;0.00;;;;;20.02;41.30;99114.84;5098487;27;50857;-44
2021/12/10 08:43:44;;;;;;;;;0.50;0.25;;;;;20.00;41.23;99119.75;5096761;27;52030;-45
2021/12/10 08:46:12;;;;;;;;;0.25;0.25;;;;;19.96;41.29;99116.72;5096883;27;51204;-44
2021/12/10 08:48:37;;;;;;;;;2.25;0.00;;;;;19.93;41.13;99124.66;5098301;27;51450;-49
2021/12/10 08:51:31;;;;;;;;;1.00;0.00;;;;;19.90;41.29;99142.47;5098178;27;51309;-44
2021/12/10 08:53:58;;;;;;;;;0.25;0.00;;;;;19.88;41.38;99145.47;5094245;27;51797;-43
2021/12/10 08:56:23;;;;;;;;;1.00;1.00;;;;;19.86;41.38;99144.09;5097126;27;51285;-44
2021/12/10 08:58:50;;;;;;;;;2.00;0.75;;;;;19.83;41.17;99161.94;5097100;27;50937;-45
2021/12/10 09:01:22;;;;;;;;;0.00;0.00;;;;;19.81;41.30;99152.28;5098370;27;50936;-43
2021/12/10 09:03:52;;;;;;;;;1.00;1.00;;;;;19.78;41.08;99166.53;5097506;27;51237;-45
2021/12/10 09:06:21;;;;;;;;;2.00;2.00;;;;;19.75;41.29;99167.06;5098265;27;51185;-44
2021/12/10 09:08:46;;;;;;;;;0.75;0.75;;;;;19.73;40.84;99161.00;5096812;27;50966;-43
2021/12/10 09:11:13;;;;;;;;;1.25;0.75;;;;;19.72;40.93;99173.06;5093737;27;51351;-44
2021/12/10 09:13:39;;;;;;;;;2.00;0.50;;;;;19.69;41.28;99171.63;5077423;27;51917;-44
2021/12/10 09:16:12;;;;;;;;;0.50;0.00;;;;;19.67;41.37;99178.50;5077384;27;51346;-46
2021/12/10 09:18:39;;;;;;;;;1.25;0.50;;;;;19.64;41.27;99179.84;5076050;28;51059;-44
2021/12/10 09:21:08;;;;;;;;;1.00;1.00;;;;;19.64;41.30;99192.75;5071426;27;52483;-44
2021/12/10 09:23:34;;;;;;;;;3.25;1.00;;;;;19.62;40.73;99208.66;5077188;27;50913;-44
2021/12/10 09:26:06;;;;;;;;;2.00;0.75;;;;;19.59;41.11;99205.34;5072201;27;51102;-44
2021/12/10 09:28:31;;;;;;;;;0.75;0.75;;;;;19.59;40.94;99215.47;5077266;27;51109;-45
2021/12/10 09:31:00;;;;;;;;;2.50;1.50;;;;;19.58;40.20;99213.81;5068678;27;51154;-50
2021/12/10 09:33:27;;;;;;;;;0.00;0.00;;;;;19.56;40.13;99205.81;5069720;27;51734;-46
2021/12/10 09:35:53;;;;;;;;;2.00;1.00;;;;;19.54;39.89;99216.22;5076124;27;51084;-42
2021/12/10 09:38:20;;;;;;;;;0.25;0.00;;;;;19.55;39.92;99225.28;5072542;27;51097;-42
2021/12/10 09:40:49;;;;;;;;;0.75;0.75;;;;;19.62;39.97;99219.66;5068087;27;52157;-42
2021/12/10 09:43:16;;;;;;;;;0.00;0.00;;;;;19.72;39.99;99239.00;5072535;27;51772;-42
2021/12/10 09:45:43;;;;;;;;;3.00;1.00;;;;;19.81;40.12;99234.72;5075239;27;51031;-45
2021/12/10 09:48:13;;;;;;;;;2.50;0.75;;;;;19.93;39.92;99238.16;5074812;27;51230;-43
2021/12/10 09:50:46;;;;;;;;;1.00;0.00;;;;;20.03;39.97;99243.78;5076280;27;51044;-43
2021/12/10 09:53:13;;;;;;;;;1.00;1.00;;;;;20.17;39.70;99249.69;5073636;28;53021;-43
2021/12/10 09:55:40;;;;;;;;;1.00;1.00;;;;;20.29;39.66;99247.63;5073889;28;51315;-43
2021/12/10 09:58:06;;;;;;;;;2.50;1.00;;;;;20.42;39.99;99266.47;5075689;27;51337;-44
2021/12/10 10:00:38;;;;;;;;;0.75;0.25;;;;;20.54;39.86;99257.25;5075674;27;52379;-44
2021/12/10 10:03:07;;;;;;;;;0.00;0.00;;;;;20.66;39.84;99267.00;5075185;27;52793;-44
2021/12/10 10:05:33;;;;;;;;;2.00;0.00;;;;;20.78;39.89;99266.00;5076339;27;51479;-45
2021/12/10 10:08:03;;;;;;;;;0.00;0.00;;;;;20.90;39.48;99266.63;5072737;27;51157;-44
2021/12/10 10:10:30;;;;;;;;;1.00;0.00;;;;;20.98;39.54;99264.25;5090037;27;51186;-43
2021/12/10 10:13:00;;;;;;;;;0.75;0.00;;;;;21.08;39.19;99281.94;5076609;27;51126;-44
2021/12/10 10:15:29;;;;;;;;;0.50;0.00;;;;;21.15;39.66;99301.78;5074403;27;51141;-45
2021/12/10 10:17:59;;;;;;;;;4.00;0.75;;;;;21.21;39.65;99303.50;5076533;28;51061;-43
2021/12/10 10:20:28;;;;;;;;;2.00;0.25;;;;;21.22;39.40;99303.22;5076366;28;51057;-43
2021/12/10 10:22:53;;;;;;;;;0.25;0.00;;;;;21.21;39.78;99296.06;5072049;28;52187;-42
2021/12/10 10:25:23;;;;;;;;;1.00;1.00;;;;;21.17;39.86;99299.63;5076856;28;51303;-44
2021/12/10 10:27:49;;;;;;;;;1.00;1.00;;;;;21.13;39.69;99310.31;5077018;27;51089;-43
2021/12/10 10:30:25;;;;;;;;;0.00;0.00;;;;;21.09;39.74;99302.88;5076823;27;51202;-45
2021/12/10 10:32:53;;;;;;;;;0.00;0.00;;;;;21.08;39.84;99315.78;5073139;27;51936;-45
2021/12/10 10:35:33;;;;;;;;;0.00;0.00;;;;;21.10;39.26;99312.78;5076378;27;51258;-45
2021/12/10 10:37:59;;;;;;;;;1.00;1.00;;;;;21.15;39.58;99327.41;5068866;27;52947;-43
2021/12/10 10:40:30;;;;;;;;;1.50;0.75;;;;;21.22;39.33;99332.69;5075055;28;50957;-44
2021/12/10 10:42:58;;;;;;;;;1.50;0.00;;;;;21.29;39.65;99330.59;5071746;28;52084;-54
2021/12/10 10:45:29;;;;;;;;;0.00;0.00;;;;;21.36;38.98;99327.59;5074012;27;51154;-47
2021/12/10 10:47:57;;;;;;;;;1.50;1.50;;;;;21.43;38.96;99323.53;5070664;27;51156;-45
2021/12/10 10:50:28;;;;;;;;;3.00;0.00;;;;;21.49;39.08;99332.66;5076426;27;51513;-46
2021/12/10 10:52:59;;;;;;;;;1.00;0.00;;;;;21.53;39.23;99331.03;5075569;28;53059;-45
2021/12/10 10:55:35;;;;;;;;;0.50;0.50;;;;;21.52;39.20;99356.91;5077145;27;51051;-44
2021/12/10 10:58:04;;;;;;;;;0.50;0.50;;;;;21.49;39.52;99329.91;5078287;27;51095;-43
2021/12/10 11:00:34;;;;;;;;;1.00;0.00;;;;;21.47;39.34;99343.13;5081606;27;51238;-44
2021/12/10 11:03:09;;;;;;;;;0.50;0.00;;;;;21.42;39.20;99334.81;5077933;27;52292;-45
2021/12/10 11:05:47;;;;;;;;;0.00;0.00;;;;;21.39;39.28;99346.38;5078429;27;51305;-43
2021/12/10 11:08:13;;;;;;;;;1.00;0.00;;;;;21.37;38.99;99362.34;5075211;27;51227;-42
2021/12/10 11:10:42;;;;;;;;;1.25;1.00;;;;;21.37;38.93;99354.91;5068322;27;50939;-45
2021/12/10 11:13:20;;;;;;;;;1.25;0.25;;;;;21.41;39.38;99369.78;5071388;28;52041;-45
2021/12/10 11:16:00;;;;;;;;;0.00;0.00;;;;;21.45;39.26;99368.16;5069661;28;50972;-53
2021/12/10 11:18:26;;;;;;;;;1.25;1.25;;;;;21.52;38.75;99378.97;5066334;27;51099;-58
2021/12/10 11:20:52;;;;;;;;;0.75;0.75;;;;;21.55;39.25;99370.16;5073544;28;51254;-57
2021/12/10 11:23:25;;;;;;;;;1.75;1.00;;;;;21.56;39.34;99389.16;5072810;28;51741;-61
2021/12/10 11:25:53;;;;;;;;;2.75;0.00;;;;;21.54;38.84;99394.13;5070592;27;51300;-71
2021/12/10 11:28:31;;;;;;;;;2.25;1.00;;;;;21.51;39.40;99386.41;5070327;28;51035;-56
2021/12/10 11:31:08;;;;;;;;;1.50;1.25;;;;;21.49;39.24;99387.75;5070758;27;51268;-49
2021/12/10 11:33:42;;;;;;;;;2.00;1.00;;;;;21.45;38.81;99386.59;5074794;27;51293;-65
2021/12/10 11:36:14;;;;;;;;;2.75;1.50;;;;;21.41;39.06;99393.75;5073399;27;51346;-45
2021/12/10 11:38:45;;;;;;;;;1.00;1.00;;;;;21.41;39.07;99402.84;5073930;28;50994;-47
2021/12/10 11:41:12;;;;;;;;;0.00;0.00;;;;;21.44;38.86;99407.81;5074561;27;51346;-50
2021/12/10 11:47:02;;;;;;;;;1.00;1.00;;;;;21.56;39.19;99418.66;5066746;27;52650;-46
2021/12/10 11:49:38;;;;;;;;;1.75;1.25;;;;;21.62;38.95;99431.38;5072761;28;51047;-58
2021/12/10 11:52:11;;;;;;;;;1.00;0.25;;;;;21.67;38.85;99406.63;5057765;28;50954;-60